Potomac — WBF7534 — position and weather

sailwx.info

Track history (hours):
 
Tides and Currents Weather Stations Pressure Air Temp Water Temp Dewpoint Dewpoint Depression Visibility Wind Speed Wind Dir Waves Ship Positions

Potomac

Owner: POTOMAC ASSOCIATION, OAKLAND, CA. More information available from US FCC via Universal Licensing System and Coast Guard Vessel Documentation Center.

Last reported at 2016-Aug-27 20:33 UTC. Time now 2016-Aug-28 00:31 UTC.
Position N 37°48' W 122°17'.

Length 51 m; draft 3.1 m.

MMSI: 367166810.

Date/timePositionNaut miles runAvg speedWind from/ knotsBaromVisibWave heightAir tempDewpointWater temp
2016-Aug-27 20:33N 37°48' W 122°17'8 8.2
2016-Aug-27 19:33N 37°50' W 122°27'4 3.9
2016-Aug-27 18:33N 37°54' W 122°24'8 8.5
2016-Aug-27 17:33N 37°48' W 122°17'0 0.0
2016-Aug-27 16:31N 37°48' W 122°17'0 0.0
2016-Aug-27 04:29N 37°48' W 122°17'3 3.7
2016-Aug-27 03:33N 37°48' W 122°21'4 3.7
2016-Aug-27 02:34N 37°47' W 122°16'0 0.4
2016-Aug-27 01:33N 37°48' W 122°17'0 0.0
2016-Aug-27 00:33N 37°48' W 122°17'0 0.0
2016-Aug-25 22:13N 37°48' W 122°17'5 7.1
2016-Aug-25 21:34N 37°47' W 122°23'6 6.3
2016-Aug-25 20:33N 37°52' W 122°26'6 5.7
2016-Aug-25 19:33N 37°49' W 122°21'4 3.5
2016-Aug-25 18:33N 37°48' W 122°17'  
2016-Aug-21 03:20N 37°48' W 122°17'3 4.4
2016-Aug-21 02:33N 37°48' W 122°21'3 3.2
2016-Aug-21 01:34N 37°49' W 122°25'3 2.7
2016-Aug-21 00:33N 37°48' W 122°22'4 4.5
2016-Aug-20 23:34N 37°47' W 122°16'1 0.6
2016-Aug-20 22:33N 37°48' W 122°17'0 0.0
2016-Aug-19 04:16N 37°48' W 122°17'5 6.9
2016-Aug-19 03:33N 37°47' W 122°23'3 2.8
2016-Aug-19 02:33N 37°49' W 122°25'6 5.6
2016-Aug-19 01:33N 37°48' W 122°19'1 1.4
2016-Aug-19 00:30N 37°48' W 122°17'1 0.3
2016-Aug-18 19:34N 37°48' W 122°18'5 4.8
2016-Aug-18 18:33N 37°50' W 122°24'6 5.9
2016-Aug-18 17:33N 37°48' W 122°17'0 0.0
2016-Aug-18 16:30N 37°48' W 122°17'  
Track history (hours):
 
Tides and Currents Weather Stations Pressure Air Temp Water Temp Dewpoint Dewpoint Depression Visibility Wind Speed Wind Dir Waves Ship Positions

Potomac

Owner: POTOMAC ASSOCIATION, OAKLAND, CA. More information available from US FCC via Universal Licensing System and Coast Guard Vessel Documentation Center.

Last reported at 2016-Aug-27 20:33 UTC. Time now 2016-Aug-28 00:31 UTC.
Position N 37°48' W 122°17'.

Length 51 m; draft 3.1 m.

MMSI: 367166810.

Date/timePositionNaut miles runAvg speedWind from/ knotsBaromVisibWave heightAir tempDewpointWater temp
2016-Aug-27 20:33N 37°48' W 122°17'8 8.2
2016-Aug-27 19:33N 37°50' W 122°27'4 3.9
2016-Aug-27 18:33N 37°54' W 122°24'8 8.5
2016-Aug-27 17:33N 37°48' W 122°17'0 0.0
2016-Aug-27 16:31N 37°48' W 122°17'0 0.0
2016-Aug-27 04:29N 37°48' W 122°17'3 3.7
2016-Aug-27 03:33N 37°48' W 122°21'4 3.7
2016-Aug-27 02:34N 37°47' W 122°16'0 0.4
2016-Aug-27 01:33N 37°48' W 122°17'0 0.0
2016-Aug-27 00:33N 37°48' W 122°17'0 0.0
2016-Aug-25 22:13N 37°48' W 122°17'5 7.1
2016-Aug-25 21:34N 37°47' W 122°23'6 6.3
2016-Aug-25 20:33N 37°52' W 122°26'6 5.7
2016-Aug-25 19:33N 37°49' W 122°21'4 3.5
2016-Aug-25 18:33N 37°48' W 122°17'  
2016-Aug-21 03:20N 37°48' W 122°17'3 4.4
2016-Aug-21 02:33N 37°48' W 122°21'3 3.2
2016-Aug-21 01:34N 37°49' W 122°25'3 2.7
2016-Aug-21 00:33N 37°48' W 122°22'4 4.5
2016-Aug-20 23:34N 37°47' W 122°16'1 0.6
2016-Aug-20 22:33N 37°48' W 122°17'0 0.0
2016-Aug-19 04:16N 37°48' W 122°17'5 6.9
2016-Aug-19 03:33N 37°47' W 122°23'3 2.8
2016-Aug-19 02:33N 37°49' W 122°25'6 5.6
2016-Aug-19 01:33N 37°48' W 122°19'1 1.4
2016-Aug-19 00:30N 37°48' W 122°17'1 0.3
2016-Aug-18 19:34N 37°48' W 122°18'5 4.8
2016-Aug-18 18:33N 37°50' W 122°24'6 5.9
2016-Aug-18 17:33N 37°48' W 122°17'0 0.0
2016-Aug-18 16:30N 37°48' W 122°17'  

Dump ship's entire track history